createdAt,value
2023-09-15T00:01:19.622Z,17.88
2023-09-15T00:04:21.499Z,17.93
2023-09-15T00:07:23.258Z,18.00
2023-09-15T00:10:25.253Z,18.02
2023-09-15T00:13:28.504Z,17.92
2023-09-15T00:16:30.387Z,17.86
2023-09-15T00:19:32.651Z,17.88
2023-09-15T00:22:35.051Z,17.91
2023-09-15T00:25:36.765Z,17.84
2023-09-15T00:28:38.488Z,17.79
2023-09-15T00:31:41.391Z,17.82
2023-09-15T00:34:43.189Z,17.56
2023-09-15T00:37:47.231Z,17.74
2023-09-15T00:40:49.147Z,17.70
2023-09-15T00:43:50.902Z,17.69
2023-09-15T00:46:52.895Z,17.71
2023-09-15T00:49:55.660Z,17.67
2023-09-15T00:53:02.630Z,17.60
2023-09-15T00:56:05.164Z,17.61
2023-09-15T00:59:07.804Z,17.72
2023-09-15T01:02:10.201Z,17.63
2023-09-15T01:05:20.948Z,17.67
2023-09-15T01:08:24.154Z,17.51
2023-09-15T01:11:27.763Z,17.57
2023-09-15T01:14:29.702Z,17.53
2023-09-15T01:17:50.386Z,17.65
2023-09-15T01:21:12.413Z,17.55
2023-09-15T01:24:47.917Z,17.62
2023-09-15T01:28:10.253Z,17.53
2023-09-15T01:31:12.675Z,17.58
2023-09-15T01:34:18.268Z,17.63
2023-09-15T01:37:21.788Z,17.41
2023-09-15T01:40:23.622Z,17.15
2023-09-15T01:43:25.426Z,17.29
2023-09-15T01:46:27.199Z,17.15
2023-09-15T01:49:30.505Z,17.03
2023-09-15T01:52:33.226Z,17.02
2023-09-15T01:55:35.761Z,16.71
2023-09-15T01:58:37.567Z,16.90
2023-09-15T02:01:39.311Z,16.81
2023-09-15T02:04:42.033Z,16.73
2023-09-15T02:07:43.781Z,16.75
2023-09-15T02:10:45.907Z,16.65
2023-09-15T02:13:47.961Z,16.92
2023-09-15T02:16:49.769Z,16.79
2023-09-15T02:19:51.525Z,16.77
2023-09-15T02:22:53.499Z,16.71
2023-09-15T02:25:55.379Z,16.80
2023-09-15T02:28:57.225Z,16.57
2023-09-15T02:31:58.955Z,16.34
2023-09-15T02:35:00.788Z,16.02
2023-09-15T02:38:02.609Z,16.22
2023-09-15T02:41:04.748Z,16.07
2023-09-15T02:44:06.552Z,16.20
2023-09-15T02:47:08.359Z,16.20
2023-09-15T02:50:10.614Z,16.24
2023-09-15T02:53:14.807Z,15.92
2023-09-15T02:56:16.570Z,16.08
2023-09-15T02:59:18.325Z,16.16
2023-09-15T03:02:22.064Z,16.20
2023-09-15T03:05:24.068Z,16.03
2023-09-15T03:08:26.033Z,15.87
2023-09-15T03:11:27.972Z,15.63
2023-09-15T03:14:29.734Z,15.76
2023-09-15T03:17:31.580Z,15.83
2023-09-15T03:20:33.403Z,15.52
2023-09-15T03:23:35.478Z,15.45
2023-09-15T03:26:37.220Z,15.42
2023-09-15T03:29:39.008Z,15.41
2023-09-15T03:32:40.775Z,15.11
2023-09-15T03:35:42.728Z,15.29
2023-09-15T03:38:44.699Z,15.12
2023-09-15T03:41:46.424Z,15.08
2023-09-15T03:44:48.191Z,15.26
2023-09-15T03:47:50.016Z,15.19
2023-09-15T03:50:53.733Z,15.12
2023-09-15T03:53:55.434Z,15.02
2023-09-15T03:56:57.197Z,14.86
2023-09-15T03:59:59.353Z,14.88
2023-09-15T04:03:01.217Z,15.08
2023-09-15T04:06:04.916Z,15.15
2023-09-15T04:09:11.870Z,15.29
2023-09-15T04:12:13.654Z,15.14
2023-09-15T04:15:16.635Z,15.24
2023-09-15T04:18:19.329Z,15.35
2023-09-15T04:21:21.566Z,15.39
2023-09-15T04:24:23.311Z,15.61
2023-09-15T04:27:25.066Z,15.68
2023-09-15T04:30:26.805Z,15.42
2023-09-15T04:33:28.544Z,15.39
2023-09-15T04:36:30.321Z,15.34
2023-09-15T04:39:31.992Z,15.53
2023-09-15T04:42:41.309Z,15.69
2023-09-15T04:45:43.087Z,15.62
2023-09-15T04:48:45.806Z,15.60
2023-09-15T04:51:48.036Z,15.73
2023-09-15T04:54:49.818Z,15.78
2023-09-15T04:57:52.731Z,15.89
2023-09-15T05:01:00.387Z,15.84
2023-09-15T05:04:02.276Z,15.88
2023-09-15T05:07:04.575Z,15.88
2023-09-15T05:10:08.896Z,15.87
2023-09-15T05:13:10.722Z,15.99
2023-09-15T05:16:12.632Z,16.12
2023-09-15T05:19:14.406Z,16.17
2023-09-15T05:22:16.403Z,16.44
2023-09-15T05:25:18.321Z,16.38
2023-09-15T05:28:20.264Z,16.40
2023-09-15T05:31:26.871Z,16.47
2023-09-15T05:34:28.893Z,16.54
2023-09-15T05:37:30.905Z,16.64
2023-09-15T05:40:32.726Z,16.59
2023-09-15T05:43:34.561Z,16.80
2023-09-15T05:46:36.721Z,16.76
2023-09-15T05:49:38.505Z,16.90
2023-09-15T05:52:40.219Z,16.96
2023-09-15T05:55:41.976Z,17.13
2023-09-15T05:58:43.799Z,17.12
2023-09-15T06:01:48.295Z,16.92
2023-09-15T06:04:50.856Z,17.04
2023-09-15T06:07:53.758Z,17.21
2023-09-15T06:10:55.823Z,17.07
2023-09-15T06:13:57.551Z,17.35
2023-09-15T06:16:59.338Z,17.33
2023-09-15T06:20:01.536Z,17.41
2023-09-15T06:23:04.271Z,17.43
2023-09-15T06:26:06.070Z,17.39
2023-09-15T06:29:07.911Z,17.40
2023-09-15T06:32:09.627Z,17.54
2023-09-15T06:35:14.738Z,17.54
2023-09-15T06:38:16.568Z,17.70
2023-09-15T06:41:18.361Z,17.61
2023-09-15T06:44:20.162Z,17.70
2023-09-15T06:47:22.078Z,17.68
2023-09-15T06:50:23.961Z,17.76
2023-09-15T06:53:25.716Z,18.09
2023-09-15T06:56:28.864Z,18.21
2023-09-15T06:59:30.698Z,18.25
2023-09-15T07:02:32.529Z,18.40
2023-09-15T07:05:34.349Z,18.70
2023-09-15T07:08:36.079Z,18.72
2023-09-15T07:11:37.863Z,18.70
2023-09-15T07:14:39.857Z,18.97
2023-09-15T07:17:41.714Z,19.07
2023-09-15T07:20:43.861Z,19.48
2023-09-15T07:23:46.049Z,19.56
2023-09-15T07:26:49.023Z,19.43
2023-09-15T07:29:51.605Z,19.72
2023-09-15T07:32:53.365Z,19.90
2023-09-15T07:36:02.214Z,19.91
2023-09-15T07:39:06.274Z,20.48
2023-09-15T07:42:10.138Z,20.46
2023-09-15T07:45:14.583Z,20.61
2023-09-15T07:48:16.488Z,20.78
2023-09-15T07:51:18.191Z,21.04
2023-09-15T07:54:20.418Z,20.77
2023-09-15T07:57:22.248Z,20.91
2023-09-15T08:00:24.902Z,21.05
2023-09-15T08:03:27.038Z,21.05
2023-09-15T08:06:29.622Z,21.14
2023-09-15T08:09:31.392Z,21.36
2023-09-15T08:12:33.332Z,21.53
2023-09-15T08:15:35.080Z,21.71
2023-09-15T08:18:36.908Z,22.06
2023-09-15T08:21:40.324Z,22.30
2023-09-15T08:24:42.247Z,22.40
2023-09-15T08:27:45.853Z,22.53
2023-09-15T08:30:50.638Z,22.61
2023-09-15T08:33:54.043Z,23.03
2023-09-15T08:36:55.928Z,23.14
2023-09-15T08:39:57.814Z,23.17
2023-09-15T08:42:59.635Z,23.31
2023-09-15T08:46:04.969Z,23.41
2023-09-15T08:49:09.109Z,23.49
2023-09-15T08:52:11.324Z,23.66
2023-09-15T08:55:13.178Z,23.58
2023-09-15T08:58:15.868Z,23.91
2023-09-15T09:01:19.750Z,24.06
2023-09-15T09:04:21.598Z,23.82
2023-09-15T09:07:25.992Z,25.96
2023-09-15T09:10:28.141Z,25.03
2023-09-15T09:13:43.164Z,24.67
2023-09-15T09:16:48.351Z,24.39
2023-09-15T09:19:51.022Z,24.92
2023-09-15T09:22:54.093Z,24.88
2023-09-15T09:25:56.067Z,25.76
2023-09-15T09:28:58.669Z,25.83
2023-09-15T09:32:00.560Z,26.14
2023-09-15T09:35:02.296Z,25.57
2023-09-15T09:38:05.076Z,26.27
2023-09-15T09:41:09.318Z,26.54
2023-09-15T09:44:13.500Z,26.62
2023-09-15T09:47:15.327Z,26.72
2023-09-15T09:50:17.389Z,26.65
2023-09-15T09:53:28.752Z,26.54
2023-09-15T09:56:34.049Z,26.87
2023-09-15T09:59:38.824Z,27.00
2023-09-15T10:02:41.887Z,27.74
2023-09-15T10:05:44.128Z,27.71
2023-09-15T10:08:47.785Z,27.80
2023-09-15T10:11:50.113Z,27.80
2023-09-15T10:14:53.503Z,28.39
2023-09-15T10:17:55.962Z,28.44
2023-09-15T10:20:58.683Z,28.83
2023-09-15T10:24:01.838Z,29.09
2023-09-15T10:27:04.355Z,28.98
2023-09-15T10:30:08.263Z,28.94
2023-09-15T10:33:11.379Z,29.02
2023-09-15T10:36:16.865Z,29.01
2023-09-15T10:39:18.978Z,28.45
2023-09-15T10:42:20.860Z,27.92
2023-09-15T10:45:22.843Z,27.66
2023-09-15T10:48:36.734Z,27.24
2023-09-15T10:51:41.234Z,27.44
2023-09-15T10:54:43.028Z,27.45
2023-09-15T10:57:45.364Z,27.10
2023-09-15T11:00:49.468Z,27.41
2023-09-15T11:03:51.813Z,27.51
2023-09-15T11:06:54.973Z,27.17
2023-09-15T11:09:58.025Z,27.54
2023-09-15T11:13:04.576Z,28.37
2023-09-15T11:16:08.404Z,29.41
2023-09-15T11:19:10.463Z,29.51
2023-09-15T11:22:12.443Z,30.55
2023-09-15T11:25:18.146Z,29.93
2023-09-15T11:28:20.131Z,31.00
2023-09-15T11:31:24.417Z,30.54
2023-09-15T11:34:28.048Z,31.71
2023-09-15T11:37:30.041Z,31.96
2023-09-15T11:40:34.234Z,32.32
2023-09-15T11:43:37.583Z,31.95
2023-09-15T11:46:40.776Z,32.23
2023-09-15T11:49:43.523Z,33.04
2023-09-15T11:52:45.831Z,33.49
2023-09-15T11:55:53.062Z,33.20
2023-09-15T11:58:55.354Z,34.25
2023-09-15T12:02:01.207Z,33.63
2023-09-15T12:05:03.097Z,33.20
2023-09-15T12:08:04.862Z,32.79
2023-09-15T12:11:13.060Z,31.69
2023-09-15T12:14:16.241Z,31.51
2023-09-15T12:17:18.069Z,31.31
2023-09-15T12:20:26.977Z,31.57
2023-09-15T12:23:29.636Z,31.44
2023-09-15T12:26:31.396Z,33.73
2023-09-15T12:29:33.159Z,35.31
2023-09-15T12:32:36.732Z,36.85
2023-09-15T12:35:41.644Z,38.56
2023-09-15T12:38:43.410Z,39.36
2023-09-15T12:41:45.253Z,39.45
2023-09-15T12:44:47.316Z,39.91
2023-09-15T12:47:49.090Z,39.96
2023-09-15T12:50:50.867Z,40.92
2023-09-15T12:53:52.826Z,41.27
2023-09-15T12:56:54.613Z,41.63
2023-09-15T12:59:56.321Z,42.12
2023-09-15T13:02:58.172Z,42.35
2023-09-15T13:05:59.984Z,39.28
2023-09-15T13:09:01.746Z,40.13
2023-09-15T13:12:04.895Z,41.24
2023-09-15T13:15:08.668Z,41.72
2023-09-15T13:18:11.079Z,42.03
2023-09-15T13:21:14.315Z,39.04
2023-09-15T13:24:16.567Z,39.82
2023-09-15T13:27:18.399Z,40.28
2023-09-15T13:30:20.221Z,39.70
2023-09-15T13:33:22.066Z,38.86
2023-09-15T13:36:24.647Z,39.78
2023-09-15T13:39:26.525Z,38.98
2023-09-15T13:42:33.062Z,39.90
2023-09-15T13:45:35.633Z,39.91
2023-09-15T13:48:37.653Z,37.58
2023-09-15T13:51:43.153Z,36.26
2023-09-15T13:54:45.374Z,35.14
2023-09-15T13:57:47.129Z,34.37
2023-09-15T14:01:01.023Z,33.67
2023-09-15T14:04:02.978Z,33.46
2023-09-15T14:07:06.313Z,34.57
2023-09-15T14:10:08.265Z,33.17
2023-09-15T14:13:10.222Z,34.25
2023-09-15T14:16:12.658Z,34.83
2023-09-15T14:19:15.305Z,35.18
2023-09-15T14:22:17.028Z,35.57
2023-09-15T14:25:20.136Z,36.25
2023-09-15T14:28:21.896Z,36.52
2023-09-15T14:31:23.742Z,35.39
2023-09-15T14:34:25.477Z,34.39
2023-09-15T14:37:34.756Z,34.05
2023-09-15T14:40:36.583Z,35.13
2023-09-15T14:43:38.349Z,35.68
2023-09-15T14:46:40.105Z,36.09
2023-09-15T14:49:41.841Z,35.93
2023-09-15T14:52:45.258Z,35.01
2023-09-15T14:55:47.045Z,33.83
2023-09-15T14:58:50.502Z,32.86
2023-09-15T15:01:52.510Z,32.22
2023-09-15T15:04:54.342Z,31.68
2023-09-15T15:07:56.648Z,31.06
2023-09-15T15:10:58.417Z,30.77
2023-09-15T15:14:00.839Z,30.44
2023-09-15T15:17:02.796Z,30.13
2023-09-15T15:20:09.413Z,30.00
2023-09-15T15:23:11.303Z,29.68
2023-09-15T15:26:13.495Z,29.26
2023-09-15T15:29:15.220Z,29.05
2023-09-15T15:32:17.039Z,29.02
2023-09-15T15:35:22.324Z,28.87
2023-09-15T15:38:24.099Z,28.85
2023-09-15T15:41:25.893Z,28.81
2023-09-15T15:44:29.944Z,28.94
2023-09-15T15:47:32.919Z,29.07
2023-09-15T15:50:34.664Z,28.97
2023-09-15T15:53:40.179Z,29.00
2023-09-15T15:56:42.382Z,28.85
2023-09-15T15:59:44.227Z,28.36
2023-09-15T16:02:46.631Z,28.50
2023-09-15T16:05:48.501Z,28.74
2023-09-15T16:08:50.486Z,28.63
2023-09-15T16:11:52.566Z,28.41
2023-09-15T16:14:54.301Z,28.10
2023-09-15T16:17:58.741Z,28.01
2023-09-15T16:21:00.579Z,27.96
2023-09-15T16:24:02.928Z,27.76
2023-09-15T16:27:04.862Z,27.60
2023-09-15T16:30:08.455Z,27.24
2023-09-15T16:33:14.351Z,27.24
2023-09-15T16:36:16.166Z,26.81
2023-09-15T16:39:17.924Z,26.72
2023-09-15T16:42:19.726Z,26.45
2023-09-15T16:45:23.678Z,26.13
2023-09-15T16:48:27.904Z,26.07
2023-09-15T16:51:30.806Z,25.85
2023-09-15T16:54:32.719Z,25.68
2023-09-15T16:57:34.587Z,25.65
2023-09-15T17:00:36.441Z,25.56
2023-09-15T17:03:38.353Z,25.48
2023-09-15T17:06:40.278Z,25.36
2023-09-15T17:09:42.147Z,25.23
2023-09-15T17:12:44.428Z,25.13
2023-09-15T17:15:49.368Z,25.03
2023-09-15T17:18:51.832Z,24.89
2023-09-15T17:21:54.317Z,24.80
2023-09-15T17:24:57.242Z,24.68
2023-09-15T17:28:00.877Z,24.44
2023-09-15T17:31:03.811Z,24.46
2023-09-15T17:34:06.353Z,24.45
2023-09-15T17:37:08.111Z,24.35
2023-09-15T17:40:12.254Z,24.08
2023-09-15T17:43:14.618Z,23.99
2023-09-15T17:46:16.383Z,24.12
2023-09-15T17:49:18.323Z,23.95
2023-09-15T17:52:20.696Z,23.74
2023-09-15T17:55:22.938Z,23.70
2023-09-15T17:58:24.773Z,23.66
2023-09-15T18:01:26.526Z,23.53
2023-09-15T18:04:28.272Z,23.50
2023-09-15T18:07:31.868Z,23.49
2023-09-15T18:10:33.844Z,23.14
2023-09-15T18:13:35.754Z,23.20
2023-09-15T18:16:37.739Z,23.14
2023-09-15T18:19:39.522Z,23.17
2023-09-15T18:22:41.404Z,22.89
2023-09-15T18:25:43.197Z,23.03
2023-09-15T18:28:47.805Z,22.90
2023-09-15T18:31:49.975Z,22.82
2023-09-15T18:34:51.878Z,22.82
2023-09-15T18:37:54.171Z,22.85
2023-09-15T18:40:56.011Z,22.71
2023-09-15T18:43:59.364Z,22.53
2023-09-15T18:47:01.099Z,22.43
2023-09-15T18:50:03.411Z,22.27
2023-09-15T18:53:05.168Z,22.12
2023-09-15T18:56:06.974Z,22.27
2023-09-15T18:59:10.879Z,22.09
2023-09-15T19:02:13.344Z,21.96
2023-09-15T19:05:15.992Z,21.90
2023-09-15T19:08:17.729Z,21.68
2023-09-15T19:11:19.459Z,21.69
2023-09-15T19:14:21.168Z,21.41
2023-09-15T19:17:22.928Z,21.26
2023-09-15T19:20:24.723Z,21.11
2023-09-15T19:23:27.202Z,21.12
2023-09-15T19:26:28.954Z,21.12
2023-09-15T19:29:30.714Z,21.23
2023-09-15T19:32:33.421Z,21.26
2023-09-15T19:35:35.959Z,21.35
2023-09-15T19:38:37.708Z,21.38
2023-09-15T19:41:39.695Z,20.96
2023-09-15T19:44:41.423Z,21.00
2023-09-15T19:47:43.250Z,21.07
2023-09-15T19:50:46.757Z,21.14
2023-09-15T19:53:48.630Z,20.90
2023-09-15T19:56:53.158Z,21.02
2023-09-15T19:59:55.004Z,21.01
2023-09-15T20:02:59.678Z,20.93
2023-09-15T20:06:04.720Z,20.76
2023-09-15T20:09:06.725Z,20.73
2023-09-15T20:12:08.800Z,20.55
2023-09-15T20:15:13.388Z,20.61
2023-09-15T20:18:15.137Z,20.48
2023-09-15T20:21:16.858Z,20.58
2023-09-15T20:24:19.072Z,20.52
2023-09-15T20:27:21.226Z,20.50
2023-09-15T20:30:23.252Z,20.42
2023-09-15T20:33:26.431Z,20.41
2023-09-15T20:36:28.317Z,20.30
2023-09-15T20:39:30.175Z,20.18
2023-09-15T20:42:32.029Z,20.10
2023-09-15T20:45:34.623Z,20.17
2023-09-15T20:48:36.388Z,20.26
2023-09-15T20:51:38.269Z,20.07
2023-09-15T20:54:40.192Z,20.16
2023-09-15T20:57:42.019Z,20.19
2023-09-15T21:00:46.336Z,20.19
2023-09-15T21:03:48.370Z,20.24
2023-09-15T21:06:51.045Z,20.21
2023-09-15T21:09:53.765Z,20.37
2023-09-15T21:12:55.668Z,20.50
2023-09-15T21:15:57.502Z,20.48
2023-09-15T21:18:59.604Z,20.57
2023-09-15T21:22:02.472Z,20.61
2023-09-15T21:25:04.550Z,20.58
2023-09-15T21:28:06.453Z,20.59
2023-09-15T21:31:09.949Z,20.61
2023-09-15T21:34:11.858Z,20.62
2023-09-15T21:37:13.611Z,20.63
2023-09-15T21:40:15.518Z,20.70
2023-09-15T21:43:18.668Z,20.63
2023-09-15T21:46:21.794Z,20.51
2023-09-15T21:49:23.655Z,20.53
2023-09-15T21:52:25.384Z,20.68
2023-09-15T21:55:27.114Z,20.60
2023-09-15T21:58:28.916Z,20.46
2023-09-15T22:01:31.109Z,20.37
2023-09-15T22:04:34.354Z,20.41
2023-09-15T22:07:36.051Z,20.34
2023-09-15T22:10:37.788Z,20.42
2023-09-15T22:13:39.567Z,20.52
2023-09-15T22:16:41.638Z,20.33
2023-09-15T22:19:43.531Z,20.34
2023-09-15T22:22:46.431Z,20.43
2023-09-15T22:25:50.442Z,20.32
2023-09-15T22:28:53.972Z,20.15
2023-09-15T22:31:55.761Z,20.17
2023-09-15T22:34:57.510Z,20.13
2023-09-15T22:37:59.235Z,20.00
2023-09-15T22:41:16.351Z,20.01
2023-09-15T22:44:19.456Z,20.08
2023-09-15T22:47:21.865Z,20.35
2023-09-15T22:50:25.096Z,20.10
2023-09-15T22:53:26.851Z,20.33
2023-09-15T22:56:28.649Z,20.13
2023-09-15T22:59:30.364Z,20.19
2023-09-15T23:02:32.138Z,20.66
2023-09-15T23:05:34.044Z,20.08
2023-09-15T23:08:35.756Z,20.02
2023-09-15T23:11:37.523Z,20.33
2023-09-15T23:14:40.773Z,19.89
2023-09-15T23:17:42.614Z,20.38
2023-09-15T23:20:44.396Z,19.86
2023-09-15T23:23:46.584Z,20.32
2023-09-15T23:26:48.366Z,20.04
2023-09-15T23:29:52.322Z,20.23
2023-09-15T23:32:54.832Z,19.92
2023-09-15T23:35:57.232Z,19.57
2023-09-15T23:38:58.956Z,19.50
2023-09-15T23:42:01.509Z,19.37
2023-09-15T23:45:03.677Z,19.40
2023-09-15T23:48:05.868Z,19.27
2023-09-15T23:51:07.738Z,19.19
2023-09-15T23:54:09.899Z,19.19
2023-09-15T23:57:11.642Z,19.12
